Time;durP1;ratioP1;P1;durP2;ratioP2;P2;SDS_P1;SDS_P2;PMS_P1;PMS_P2;Temp;Humidity;BMP_temperature;BMP_pressure;BME280_temperature;BME280_humidity;BME280_pressure;Samples;Min_cycle;Max_cycle;Signal;HPM_P1;HPM_P2
2021/11/08 00:01:16;;;;;;;2.37;2.17;;;9.20;85.40;;;;;;5112906;28;20273;-71
2021/11/08 00:03:46;;;;;;;1.87;1.77;;;9.20;85.50;;;;;;5117381;28;20221;-71
2021/11/08 00:06:16;;;;;;;0.60;0.60;;;9.20;85.60;;;;;;5085542;28;20212;-71
2021/11/08 00:08:43;;;;;;;2.20;1.27;;;9.20;85.60;;;;;;5102906;28;20239;-71
2021/11/08 00:11:10;;;;;;;1.60;1.50;;;9.30;85.70;;;;;;5087319;28;20330;-71
2021/11/08 00:13:37;;;;;;;0.70;0.70;;;9.30;85.70;;;;;;5110549;28;20660;-71
2021/11/08 00:21:02;;;;;;;0.73;0.73;;;9.40;85.70;;;;;;5110480;28;20240;-71
2021/11/08 00:23:30;;;;;;;1.37;1.30;;;9.40;85.60;;;;;;5088340;28;20300;-71
2021/11/08 00:26:01;;;;;;;1.07;1.07;;;9.40;86.30;;;;;;5101251;28;20205;-71
2021/11/08 00:28:29;;;;;;;5.83;2.20;;;9.50;85.70;;;;;;5091752;28;20323;-71
2021/11/08 00:30:56;;;;;;;1.20;1.20;;;9.50;85.70;;;;;;5113507;28;20208;-71
2021/11/08 00:33:24;;;;;;;0.87;0.87;;;9.50;85.70;;;;;;5091959;28;20205;-71
2021/11/08 00:35:55;;;;;;;1.63;1.23;;;9.60;85.70;;;;;;5087824;28;20287;-71
2021/11/08 00:38:24;;;;;;;2.03;1.70;;;9.60;85.80;;;;;;5112525;28;20223;-71
2021/11/08 00:40:53;;;;;;;3.10;1.03;;;9.70;85.70;;;;;;5102323;28;20324;-71
2021/11/08 00:43:20;;;;;;;1.47;1.37;;;9.70;85.70;;;;;;5092418;28;20216;-71
2021/11/08 00:45:48;;;;;;;2.17;1.97;;;9.70;85.70;;;;;;5086968;28;20208;-71
2021/11/08 00:48:18;;;;;;;0.87;0.87;;;9.80;85.70;;;;;;5088890;28;20685;-71
2021/11/08 00:50:45;;;;;;;1.17;1.17;;;9.80;85.70;;;;;;5099064;28;20220;-71
2021/11/08 00:53:12;;;;;;;3.37;1.67;;;9.90;85.80;;;;;;5096940;28;20217;-71
2021/11/08 00:55:44;;;;;;;0.87;0.87;;;9.90;85.80;;;;;;5099660;28;20213;-71
2021/11/08 00:58:32;;;;;;;2.63;2.43;;;10.00;85.90;;;;;;5104395;28;20220;-71
2021/11/08 01:01:03;;;;;;;0.70;0.70;;;10.00;86.10;;;;;;5105731;28;20235;-71
2021/11/08 01:03:33;;;;;;;3.00;2.20;;;10.00;86.30;;;;;;5112299;28;20219;-71
2021/11/08 01:06:01;;;;;;;3.57;1.60;;;10.00;86.50;;;;;;5096626;28;20607;-71
2021/11/08 01:08:28;;;;;;;1.53;1.43;;;10.00;86.60;;;;;;5100587;28;20653;-71
2021/11/08 01:10:55;;;;;;;1.97;1.77;;;10.00;86.60;;;;;;5085213;28;20208;-71
2021/11/08 01:13:24;;;;;;;1.63;1.13;;;10.00;86.70;;;;;;5100347;28;20314;-71
2021/11/08 01:15:52;;;;;;;2.60;2.07;;;10.00;86.80;;;;;;5097611;28;20649;-71
2021/11/08 01:18:19;;;;;;;1.17;1.07;;;10.00;87.00;;;;;;5096245;28;20209;-71
2021/11/08 01:20:47;;;;;;;2.57;1.27;;;10.00;87.10;;;;;;5110350;28;20267;-71
2021/11/08 01:23:17;;;;;;;6.53;2.73;;;10.00;87.20;;;;;;5088788;28;20220;-71
2021/11/08 01:25:56;;;;;;;0.30;0.30;;;10.00;87.30;;;;;;5091475;28;20274;-71
2021/11/08 01:28:31;;;;;;;2.30;1.50;;;10.00;87.30;;;;;;5083103;28;20216;-71
2021/11/08 01:30:59;;;;;;;4.30;3.30;;;10.00;87.40;;;;;;5104698;28;20274;-71
2021/11/08 01:33:26;;;;;;;1.53;1.43;;;10.00;87.50;;;;;;5089452;28;20220;-71
2021/11/08 01:36:09;;;;;;;2.63;1.13;;;9.90;87.60;;;;;;5087903;28;20255;-71
2021/11/08 01:38:45;;;;;;;3.60;2.80;;;9.90;87.80;;;;;;5106345;28;20231;-71
2021/11/08 01:41:15;;;;;;;0.93;0.90;;;9.80;87.80;;;;;;5029987;28;1305392;-71
2021/11/08 01:43:42;;;;;;;0.87;0.87;;;9.80;88.00;;;;;;5077082;28;20232;-71
2021/11/08 01:46:11;;;;;;;1.87;1.70;;;9.70;88.10;;;;;;5067415;28;20228;-71
2021/11/08 01:48:39;;;;;;;1.43;1.43;;;9.60;88.30;;;;;;5066670;28;20209;-71
2021/11/08 01:51:07;;;;;;;4.80;3.50;;;9.60;88.50;;;;;;5062435;28;20279;-71
2021/11/08 01:53:35;;;;;;;1.30;1.20;;;9.50;88.70;;;;;;5064035;28;20208;-71
2021/11/08 01:56:02;;;;;;;1.83;1.63;;;9.50;88.90;;;;;;5078836;28;20638;-71
2021/11/08 01:58:31;;;;;;;2.70;1.97;;;9.50;88.90;;;;;;5067548;28;20684;-71
2021/11/08 02:01:00;;;;;;;2.13;1.10;;;9.40;88.90;;;;;;5080178;28;20288;-71
2021/11/08 02:03:27;;;;;;;2.37;1.83;;;9.40;88.90;;;;;;5063303;28;20214;-71
2021/11/08 02:05:54;;;;;;;1.60;1.53;;;9.40;89.00;;;;;;5058785;28;20241;-71
2021/11/08 02:08:26;;;;;;;0.93;0.93;;;9.40;89.00;;;;;;5079135;28;20205;-71
2021/11/08 02:10:55;;;;;;;0.50;0.50;;;9.40;89.10;;;;;;5085531;28;20209;-71
2021/11/08 02:13:23;;;;;;;1.93;1.83;;;9.40;89.10;;;;;;5066109;28;20214;-71
2021/11/08 02:15:51;;;;;;;1.03;1.03;;;9.50;89.00;;;;;;5088644;28;20213;-71
2021/11/08 02:18:21;;;;;;;3.07;2.23;;;9.50;89.00;;;;;;5076860;28;20213;-71
2021/11/08 02:20:49;;;;;;;2.43;1.07;;;9.50;88.90;;;;;;5073702;28;20561;-71
2021/11/08 02:23:18;;;;;;;0.80;0.80;;;9.60;88.80;;;;;;5085844;28;20206;-71
2021/11/08 02:25:47;;;;;;;3.57;3.27;;;9.60;88.70;;;;;;5085913;28;20205;-71
2021/11/08 02:28:15;;;;;;;5.13;1.87;;;9.70;88.70;;;;;;5073871;28;20619;-71
2021/11/08 02:30:44;;;;;;;5.27;2.83;;;9.60;88.70;;;;;;5075689;28;20696;-71
2021/11/08 02:33:17;;;;;;;3.23;1.50;;;9.70;88.70;;;;;;5079333;28;20236;-71
2021/11/08 02:35:44;;;;;;;2.70;1.73;;;9.70;88.70;;;;;;5086220;28;20655;-71
2021/11/08 02:38:25;;;;;;;2.60;1.33;;;9.70;88.70;;;;;;5065254;28;20662;-71
2021/11/08 02:40:55;;;;;;;1.17;1.17;;;9.70;88.60;;;;;;5061660;28;20249;-71
2021/11/08 02:43:24;;;;;;;1.37;1.33;;;9.80;88.70;;;;;;5076615;28;20299;-71
2021/11/08 02:46:08;;;;;;;5.53;1.77;;;9.80;88.60;;;;;;5078845;28;20217;-71
2021/11/08 02:48:37;;;;;;;32.57;2.17;;;9.80;88.50;;;;;;5084773;28;20216;-71
2021/11/08 02:51:26;;;;;;;3.27;1.93;;;9.80;88.50;;;;;;5070816;28;20211;-71
2021/11/08 02:54:01;;;;;;;0.93;0.93;;;9.80;88.50;;;;;;5076989;28;20670;-71
2021/11/08 02:56:28;;;;;;;1.30;1.27;;;9.90;88.60;;;;;;5059217;28;20205;-71
2021/11/08 02:58:56;;;;;;;1.93;1.77;;;9.90;88.70;;;;;;5079684;28;20206;-71
2021/11/08 03:01:25;;;;;;;3.10;2.33;;;9.90;88.70;;;;;;5081773;28;20633;-71
2021/11/08 03:03:57;;;;;;;0.87;0.87;;;9.90;88.70;;;;;;5086450;28;20224;-71
2021/11/08 03:06:31;;;;;;;5.43;2.40;;;9.90;88.70;;;;;;5058139;28;20220;-70
2021/11/08 03:09:11;;;;;;;2.90;2.30;;;9.90;88.80;;;;;;5077423;28;20526;-70
2021/11/08 03:11:38;;;;;;;0.63;0.63;;;9.90;88.80;;;;;;5080082;28;20219;-70
2021/11/08 03:14:07;;;;;;;1.40;1.30;;;9.90;88.90;;;;;;5068534;28;20220;-71
2021/11/08 03:16:45;;;;;;;1.77;1.50;;;9.90;89.00;;;;;;5089139;28;20209;-71
2021/11/08 03:21:49;;;;;;;5.77;1.53;;;10.00;89.00;;;;;;5083441;28;20202;-71
2021/11/08 03:24:22;;;;;;;2.33;1.50;;;10.00;89.10;;;;;;5081891;28;20209;-71
2021/11/08 03:26:56;;;;;;;1.40;1.30;;;10.00;89.20;;;;;;5079150;28;20209;-71
2021/11/08 03:29:23;;;;;;;3.33;2.30;;;10.10;89.20;;;;;;5076890;28;20241;-71
2021/11/08 03:31:51;;;;;;;2.40;2.23;;;10.10;89.20;;;;;;5073945;28;20260;-71
2021/11/08 03:34:19;;;;;;;4.47;2.37;;;10.10;89.20;;;;;;5078615;28;20221;-71
2021/11/08 03:36:49;;;;;;;0.77;0.77;;;10.20;89.20;;;;;;5066200;28;20201;-71
2021/11/08 03:39:17;;;;;;;5.40;2.93;;;10.20;89.10;;;;;;5063640;28;20225;-71
2021/11/08 03:41:44;;;;;;;2.53;2.10;;;10.20;89.10;;;;;;5088261;28;20246;-71
2021/11/08 03:44:12;;;;;;;1.90;1.80;;;10.20;89.00;;;;;;5081121;28;20212;-70
2021/11/08 03:46:39;;;;;;;2.83;1.97;;;10.20;89.00;;;;;;5080662;28;20216;-71
2021/11/08 03:49:06;;;;;;;0.70;0.70;;;10.20;89.00;;;;;;5102899;28;20214;-71
2021/11/08 03:51:34;;;;;;;1.10;1.10;;;10.20;89.00;;;;;;5100013;28;20228;-71
2021/11/08 03:54:03;;;;;;;0.53;0.53;;;10.20;89.10;;;;;;5106821;28;20209;-71
2021/11/08 03:56:30;;;;;;;1.30;1.20;;;10.20;89.10;;;;;;5101432;28;20270;-71
2021/11/08 03:58:57;;;;;;;3.17;2.97;;;10.20;89.10;;;;;;5110257;28;20273;-71
2021/11/08 04:01:25;;;;;;;8.73;1.63;;;10.30;89.10;;;;;;5100775;28;20204;-71
2021/11/08 04:03:52;;;;;;;1.57;1.57;;;10.30;89.10;;;;;;5103604;28;20605;-71
2021/11/08 04:06:18;;;;;;;1.60;1.50;;;10.30;89.10;;;;;;5111010;28;20215;-71
2021/11/08 04:08:46;;;;;;;1.70;1.60;;;10.30;89.00;;;;;;5082777;28;20638;-71
2021/11/08 04:11:13;;;;;;;3.73;1.93;;;10.30;89.00;;;;;;5098168;28;20251;-71
2021/11/08 04:13:41;;;;;;;3.87;1.73;;;10.30;89.00;;;;;;5086764;28;20213;-71
2021/11/08 04:16:12;;;;;;;2.33;2.23;;;10.30;89.00;;;;;;5100857;28;20572;-71
2021/11/08 04:18:46;;;;;;;1.67;1.63;;;10.30;89.00;;;;;;5107189;28;20209;-71
2021/11/08 04:21:13;;;;;;;8.93;2.53;;;10.30;89.00;;;;;;5096610;28;20220;-71
2021/11/08 04:23:40;;;;;;;1.90;0.97;;;10.40;89.10;;;;;;5102401;28;20254;-71
2021/11/08 04:26:08;;;;;;;0.80;0.80;;;10.40;89.10;;;;;;5105561;28;20550;-71
2021/11/08 04:28:35;;;;;;;3.40;1.73;;;10.40;89.20;;;;;;5083070;28;20616;-71
2021/11/08 04:31:08;;;;;;;2.70;2.50;;;10.40;89.20;;;;;;5078423;28;20248;-71
2021/11/08 04:33:46;;;;;;;2.53;2.37;;;10.40;89.20;;;;;;5095436;28;20630;-71
2021/11/08 04:44:12;;;;;;;2.83;1.50;;;10.40;89.40;;;;;;5098717;28;20205;-71
2021/11/08 05:28:04;;;;;;;3.07;2.07;;;10.50;89.20;;;;;;5075213;28;20217;-71
2021/11/08 05:30:32;;;;;;;2.57;2.20;;;10.50;89.20;;;;;;5100346;28;20244;-71
2021/11/08 05:33:01;;;;;;;1.90;1.80;;;10.60;89.30;;;;;;5097842;28;20208;-71
2021/11/08 05:35:29;;;;;;;1.70;1.27;;;10.60;89.20;;;;;;5102558;28;20208;-71
2021/11/08 05:37:56;;;;;;;1.83;1.70;;;10.60;89.30;;;;;;5086141;28;20229;-71
2021/11/08 05:40:30;;;;;;;0.77;0.77;;;10.60;90.00;;;;;;5086882;28;20231;-71
2021/11/08 05:43:00;;;;;;;4.47;2.30;;;10.60;89.40;;;;;;5108812;28;20309;-71
2021/11/08 05:45:32;;;;;;;2.57;1.90;;;10.60;89.40;;;;;;5097552;28;20285;-71
2021/11/08 05:48:07;;;;;;;2.67;2.20;;;10.60;89.50;;;;;;5087976;28;20221;-71
2021/11/08 05:50:36;;;;;;;4.33;3.70;;;10.60;89.60;;;;;;5102932;28;20248;-71
2021/11/08 05:53:05;;;;;;;2.07;1.97;;;10.60;89.70;;;;;;5103990;28;20658;-71
2021/11/08 05:55:36;;;;;;;1.27;1.17;;;10.60;89.70;;;;;;5080904;28;20660;-71
2021/11/08 06:48:47;;;;;;;1.50;1.33;;;10.80;89.30;;;;;;5095955;28;20228;-71
2021/11/08 06:50:58;;;;;;;0.70;0.70;;;10.90;89.30;;;;;;5101063;28;20236;-71
2021/11/08 06:53:28;;;;;;;2.07;1.97;;;10.90;89.30;;;;;;5081287;28;20197;-71
2021/11/08 06:55:58;;;;;;;2.23;2.10;;;10.90;89.30;;;;;;5097334;28;20209;-71
2021/11/08 06:58:27;;;;;;;1.50;0.97;;;10.90;89.30;;;;;;5085595;28;20212;-71
2021/11/08 07:00:55;;;;;;;3.63;1.50;;;10.90;89.20;;;;;;5102153;28;20220;-71
2021/11/08 07:03:22;;;;;;;0.33;0.33;;;11.00;89.20;;;;;;5100239;28;20250;-71
2021/11/08 07:05:50;;;;;;;1.03;1.03;;;11.00;89.10;;;;;;5086614;28;20216;-71
2021/11/08 07:08:17;;;;;;;3.40;1.77;;;11.00;89.00;;;;;;5105564;28;20293;-71
2021/11/08 07:10:45;;;;;;;2.10;1.90;;;11.00;88.90;;;;;;5112048;28;20236;-71
2021/11/08 07:13:13;;;;;;;1.07;1.07;;;11.10;89.00;;;;;;5111138;28;20231;-70
2021/11/08 07:15:42;;;;;;;1.43;0.80;;;11.10;89.00;;;;;;5106371;28;20223;-70
2021/11/08 07:18:15;;;;;;;1.23;1.13;;;11.10;89.10;;;;;;5102024;28;20224;-70
2021/11/08 07:20:42;;;;;;;2.53;2.33;;;11.10;89.00;;;;;;5087812;28;20275;-70
2021/11/08 07:23:10;;;;;;;2.20;2.10;;;11.10;88.90;;;;;;5081580;28;20278;-71
2021/11/08 07:25:38;;;;;;;6.07;3.03;;;11.10;88.90;;;;;;5096691;28;20205;-70
2021/11/08 07:28:09;;;;;;;1.50;1.40;;;11.10;88.90;;;;;;5085584;28;20236;-70
2021/11/08 07:30:38;;;;;;;2.97;2.57;;;11.20;88.90;;;;;;5099320;28;20233;-70
2021/11/08 07:33:05;;;;;;;2.87;1.67;;;11.20;88.90;;;;;;5097155;28;20290;-70
2021/11/08 07:35:32;;;;;;;1.37;1.33;;;11.20;88.90;;;;;;5075838;28;20224;-70
2021/11/08 07:38:00;;;;;;;1.33;1.27;;;11.20;88.90;;;;;;5096945;28;20219;-70
2021/11/08 07:40:28;;;;;;;1.23;1.23;;;11.20;88.90;;;;;;5100896;28;20582;-70
2021/11/08 07:42:56;;;;;;;1.40;1.30;;;11.20;88.90;;;;;;5105280;28;20231;-70
2021/11/08 07:45:24;;;;;;;1.40;1.33;;;11.20;88.90;;;;;;5108978;28;20212;-70
2021/11/08 07:47:51;;;;;;;2.40;2.23;;;11.20;88.90;;;;;;5093968;28;20205;-70
2021/11/08 07:50:36;;;;;;;1.80;1.70;;;11.20;88.80;;;;;;5087228;28;20229;-70
2021/11/08 07:53:03;;;;;;;2.37;2.07;;;11.20;88.60;;;;;;5102643;28;20221;-71
2021/11/08 07:55:29;;;;;;;2.20;1.80;;;11.20;88.50;;;;;;5082016;28;20236;-71
2021/11/08 07:57:57;;;;;;;3.30;2.93;;;11.20;88.30;;;;;;5095496;28;20304;-69
2021/11/08 08:00:24;;;;;;;2.97;2.73;;;11.20;88.20;;;;;;5095890;28;20642;-70
2021/11/08 08:02:51;;;;;;;2.97;2.30;;;11.30;88.00;;;;;;5092640;28;20301;-69
2021/11/08 08:05:19;;;;;;;2.07;1.60;;;11.30;87.80;;;;;;5099900;28;20220;-70
2021/11/08 08:07:46;;;;;;;1.43;0.97;;;11.30;87.40;;;;;;5098199;28;20634;-70
2021/11/08 08:10:13;;;;;;;2.73;1.97;;;11.20;86.10;;;;;;5102371;28;20216;-70
2021/11/08 08:12:40;;;;;;;1.67;1.60;;;11.20;86.40;;;;;;5094777;28;20209;-70
2021/11/08 08:15:10;;;;;;;4.33;1.47;;;11.10;86.30;;;;;;5101483;28;20219;-70
2021/11/08 08:17:38;;;;;;;3.10;1.80;;;11.10;86.10;;;;;;5104414;28;20209;-70
2021/11/08 08:20:08;;;;;;;6.00;2.77;;;11.00;86.30;;;;;;5104767;28;20212;-69
2021/11/08 08:22:35;;;;;;;1.27;1.17;;;11.00;86.50;;;;;;5107961;28;20246;-69
2021/11/08 08:25:03;;;;;;;0.90;0.90;;;11.00;86.90;;;;;;5116294;28;20208;-69
2021/11/08 08:27:30;;;;;;;5.87;2.00;;;10.90;87.30;;;;;;5085149;28;20212;-69
2021/11/08 08:29:57;;;;;;;1.67;1.10;;;10.90;88.00;;;;;;5106946;28;20291;-69
2021/11/08 08:32:25;;;;;;;7.30;2.70;;;10.90;88.70;;;;;;5106503;28;20715;-69
2021/11/08 08:34:52;;;;;;;1.40;1.37;;;10.80;89.30;;;;;;5099250;28;20698;-69
2021/11/08 08:37:20;;;;;;;1.93;1.83;;;10.80;89.80;;;;;;5103038;28;20602;-68
2021/11/08 08:39:49;;;;;;;2.37;1.70;;;10.70;90.00;;;;;;5109046;28;20197;-69
2021/11/08 08:42:17;;;;;;;1.80;1.70;;;10.70;90.10;;;;;;5107008;28;20682;-69
2021/11/08 08:44:45;;;;;;;1.70;1.60;;;10.70;90.30;;;;;;5107731;28;20220;-69
2021/11/08 08:47:13;;;;;;;0.80;0.80;;;10.80;90.40;;;;;;5105871;28;20677;-69
2021/11/08 08:49:41;;;;;;;2.70;2.43;;;10.80;90.40;;;;;;5095009;28;20220;-69
2021/11/08 08:52:09;;;;;;;2.23;2.13;;;10.80;90.50;;;;;;5108556;28;20297;-70
2021/11/08 08:54:38;;;;;;;3.83;1.43;;;10.80;90.50;;;;;;5104537;28;20657;-69
2021/11/08 08:57:09;;;;;;;1.03;1.03;;;10.80;90.70;;;;;;5105577;28;20224;-69
2021/11/08 08:59:38;;;;;;;8.50;1.97;;;10.80;90.80;;;;;;5113624;28;20273;-69
2021/11/08 09:02:05;;;;;;;4.57;2.97;;;10.70;90.80;;;;;;5099041;28;20221;-69
2021/11/08 09:04:32;;;;;;;2.03;1.93;;;10.70;90.90;;;;;;5110084;28;20216;-69
2021/11/08 09:06:59;;;;;;;1.83;1.73;;;10.70;91.00;;;;;;5107699;28;20216;-69
2021/11/08 09:09:26;;;;;;;1.63;1.53;;;10.80;91.00;;;;;;5083834;28;20217;-69
2021/11/08 09:11:53;;;;;;;0.77;0.77;;;10.80;91.10;;;;;;5080192;28;20286;-69
2021/11/08 09:14:21;;;;;;;3.00;2.80;;;10.80;91.00;;;;;;5080413;28;20543;-69
2021/11/08 09:16:48;;;;;;;1.27;1.27;;;10.80;91.10;;;;;;5086952;28;20514;-69
2021/11/08 09:19:15;;;;;;;5.00;1.53;;;10.80;91.20;;;;;;5106191;28;20613;-69
2021/11/08 09:21:42;;;;;;;4.13;3.87;;;10.90;91.30;;;;;;5101361;28;20216;-69
2021/11/08 09:24:09;;;;;;;5.50;5.07;;;10.80;91.30;;;;;;5104432;28;20204;-69
2021/11/08 09:26:36;;;;;;;2.80;2.67;;;10.90;91.40;;;;;;5109376;28;20205;-69
2021/11/08 09:29:05;;;;;;;1.70;1.60;;;10.90;91.50;;;;;;5110147;28;20228;-69
2021/11/08 09:31:32;;;;;;;0.50;0.50;;;10.90;91.50;;;;;;5101990;28;20240;-69
2021/11/08 09:34:14;;;;;;;2.33;2.13;;;10.90;91.50;;;;;;5108495;28;20208;-69
2021/11/08 09:36:42;;;;;;;2.63;2.00;;;10.90;91.60;;;;;;5114508;28;20212;-69
2021/11/08 09:39:27;;;;;;;0.87;0.87;;;10.90;91.70;;;;;;5086919;28;20263;-68
2021/11/08 09:42:00;;;;;;;2.90;2.70;;;11.00;92.00;;;;;;5104888;28;20683;-68
2021/11/08 09:44:27;;;;;;;2.20;0.90;;;11.10;91.70;;;;;;5103531;28;20591;-69
2021/11/08 09:46:57;;;;;;;1.63;1.53;;;11.10;91.70;;;;;;5111285;28;20212;-69
2021/11/08 09:49:24;;;;;;;1.10;1.10;;;11.10;91.70;;;;;;5102937;28;20208;-68
2021/11/08 09:51:53;;;;;;;1.07;1.07;;;11.20;91.70;;;;;;5110103;28;20247;-69
2021/11/08 09:54:28;;;;;;;3.20;1.80;;;11.20;91.70;;;;;;5101522;28;20235;-69
2021/11/08 09:56:58;;;;;;;1.43;1.43;;;11.20;91.70;;;;;;5099504;28;20217;-69
2021/11/08 09:59:31;;;;;;;1.87;1.77;;;11.30;91.70;;;;;;5108445;28;20208;-69
2021/11/08 10:01:59;;;;;;;1.50;1.40;;;11.30;91.70;;;;;;5096317;28;20225;-69
2021/11/08 10:04:27;;;;;;;1.93;1.83;;;11.30;91.70;;;;;;5091279;28;20222;-69
2021/11/08 10:06:54;;;;;;;0.70;0.70;;;11.30;91.70;;;;;;5105777;28;20236;-69
2021/11/08 10:09:29;;;;;;;1.63;1.10;;;11.30;91.70;;;;;;5105574;28;20557;-69
2021/11/08 10:11:57;;;;;;;1.03;1.03;;;11.30;91.60;;;;;;5081484;28;20756;-69
2021/11/08 10:14:25;;;;;;;2.73;2.07;;;11.40;91.70;;;;;;5103945;28;20204;-69
2021/11/08 10:16:58;;;;;;;2.70;2.40;;;11.40;91.70;;;;;;5108790;28;20224;-69
2021/11/08 10:19:26;;;;;;;2.10;2.00;;;11.40;91.70;;;;;;5103400;28;20251;-69
2021/11/08 10:21:55;;;;;;;1.80;1.70;;;11.40;91.70;;;;;;5105733;28;20560;-69
2021/11/08 10:24:24;;;;;;;1.23;1.23;;;11.30;91.70;;;;;;5088092;28;20633;-70
2021/11/08 10:26:54;;;;;;;2.20;1.57;;;11.30;91.70;;;;;;5102190;28;20627;-70
2021/11/08 10:29:23;;;;;;;7.47;2.07;;;11.30;91.80;;;;;;5103046;28;20213;-70
2021/11/08 10:32:07;;;;;;;4.30;3.90;;;11.30;91.80;;;;;;5090121;28;20309;-70
2021/11/08 10:34:56;;;;;;;2.03;1.30;;;11.30;91.90;;;;;;5084661;28;20240;-70
2021/11/08 10:37:29;;;;;;;3.23;1.40;;;11.30;91.90;;;;;;5096632;28;20217;-70
2021/11/08 10:39:57;;;;;;;1.07;1.07;;;11.40;92.00;;;;;;5079751;28;20237;-69
2021/11/08 10:42:31;;;;;;;2.43;2.33;;;11.40;92.10;;;;;;5100197;28;20251;-70
2021/11/08 10:44:59;;;;;;;1.57;1.50;;;11.40;92.20;;;;;;5099582;28;20205;-70
2021/11/08 10:47:28;;;;;;;3.70;2.73;;;11.40;92.30;;;;;;5088514;28;20287;-70
2021/11/08 10:49:57;;;;;;;2.13;2.03;;;11.40;92.40;;;;;;5101410;28;20304;-70
2021/11/08 10:52:29;;;;;;;1.13;1.13;;;11.50;92.40;;;;;;5080619;28;20229;-70
2021/11/08 10:54:58;;;;;;;3.13;2.07;;;11.50;92.40;;;;;;5086867;28;20215;-70
2021/11/08 10:57:27;;;;;;;0.60;0.60;;;11.60;92.50;;;;;;5102768;28;20219;-70
2021/11/08 10:59:56;;;;;;;0.47;0.47;;;11.70;92.60;;;;;;5107264;28;20649;-71
2021/11/08 11:02:31;;;;;;;0.63;0.63;;;11.70;92.70;;;;;;5108913;28;20216;-70
2021/11/08 11:05:02;;;;;;;0.10;0.10;;;11.70;92.90;;;;;;5090647;28;20301;-70
2021/11/08 11:07:37;;;;;;;1.07;0.70;;;11.70;92.90;;;;;;5105040;28;20244;-71
2021/11/08 11:10:19;;;;;;;2.10;0.87;;;11.70;93.00;;;;;;5084180;28;20638;-70
2021/11/08 11:12:48;;;;;;;0.70;0.70;;;11.70;93.10;;;;;;5097641;28;20673;-71
2021/11/08 11:15:25;;;;;;;0.57;0.57;;;11.70;93.10;;;;;;5093986;28;20222;-69
2021/11/08 11:17:58;;;;;;;0.10;0.10;;;11.70;93.20;;;;;;5106565;28;20221;-69
2021/11/08 11:20:34;;;;;;;0.43;0.43;;;11.70;93.30;;;;;;5104965;28;20216;-70
2021/11/08 11:23:09;;;;;;;0.10;0.10;;;11.70;93.30;;;;;;5089724;28;20220;-70
2021/11/08 11:25:42;;;;;;;0.10;0.10;;;11.70;93.40;;;;;;5091993;28;20223;-70
2021/11/08 11:28:12;;;;;;;0.10;0.10;;;11.70;93.50;;;;;;5095993;28;20216;-69
2021/11/08 11:30:42;;;;;;;0.10;0.10;;;11.70;93.50;;;;;;5106644;28;20213;-70
2021/11/08 11:33:11;;;;;;;0.10;0.10;;;11.70;93.60;;;;;;5086747;28;20229;-70
2021/11/08 11:35:46;;;;;;;0.10;0.10;;;11.70;93.60;;;;;;5100971;28;20548;-70
2021/11/08 11:38:25;;;;;;;22.63;2.00;;;11.70;93.60;;;;;;5092819;28;20203;-70
2021/11/08 11:41:07;;;;;;;0.50;0.50;;;11.70;93.60;;;;;;5090945;28;20244;-69
2021/11/08 11:43:41;;;;;;;0.70;0.70;;;11.70;93.60;;;;;;5088305;28;20224;-69
2021/11/08 11:46:21;;;;;;;0.10;0.10;;;11.70;93.60;;;;;;5094202;28;20204;-69
2021/11/08 11:48:53;;;;;;;2.47;0.53;;;11.70;93.60;;;;;;5097782;28;20232;-70
2021/11/08 11:51:26;;;;;;;0.10;0.10;;;11.70;93.60;;;;;;5080297;28;20237;-70
2021/11/08 11:53:54;;;;;;;0.10;0.10;;;11.70;93.60;;;;;;5081204;28;20216;-69
2021/11/08 11:56:23;;;;;;;0.10;0.10;;;11.80;93.60;;;;;;5081520;28;20216;-70
2021/11/08 11:58:52;;;;;;;0.10;0.10;;;11.70;93.50;;;;;;5081637;28;20220;-70
2021/11/08 12:01:22;;;;;;;0.30;0.30;;;11.70;93.60;;;;;;5097759;28;20262;-70
2021/11/08 12:03:50;;;;;;;0.43;0.43;;;11.70;93.60;;;;;;5099300;28;20669;-70
2021/11/08 12:06:25;;;;;;;0.40;0.40;;;11.70;93.60;;;;;;5097196;28;20220;-70
2021/11/08 12:08:58;;;;;;;0.10;0.10;;;11.70;93.60;;;;;;5096647;28;20240;-69
2021/11/08 12:11:29;;;;;;;0.10;0.10;;;11.80;93.50;;;;;;5097409;28;20236;-69
2021/11/08 12:14:00;;;;;;;0.10;0.10;;;11.80;93.50;;;;;;5098971;28;20252;-68
2021/11/08 12:16:33;;;;;;;0.10;0.10;;;11.80;93.40;;;;;;5080458;28;20237;-70
2021/11/08 12:19:02;;;;;;;0.10;0.10;;;11.80;93.30;;;;;;5098526;28;20263;-69
2021/11/08 12:21:35;;;;;;;0.23;0.23;;;11.80;93.40;;;;;;5098605;28;20585;-69
2021/11/08 12:24:14;;;;;;;0.10;0.10;;;11.80;93.40;;;;;;5078971;28;20225;-69
2021/11/08 12:26:41;;;;;;;0.40;0.40;;;11.80;93.40;;;;;;5098187;28;20223;-69
2021/11/08 12:29:19;;;;;;;0.10;0.10;;;11.80;93.30;;;;;;5094708;28;20681;-68
2021/11/08 12:31:58;;;;;;;2.17;1.53;;;11.80;93.30;;;;;;5095382;28;20669;-68
2021/11/08 12:34:25;;;;;;;0.10;0.10;;;11.90;93.30;;;;;;5071506;28;20201;-70
2021/11/08 12:36:58;;;;;;;0.10;0.10;;;11.80;93.20;;;;;;5080487;28;20213;-70
2021/11/08 12:39:26;;;;;;;0.10;0.10;;;11.80;93.20;;;;;;5094661;28;20287;-69
2021/11/08 12:42:00;;;;;;;0.23;0.23;;;11.80;93.20;;;;;;5098727;28;20237;-70
2021/11/08 12:44:45;;;;;;;0.10;0.10;;;11.80;93.20;;;;;;5105931;28;20220;-69
2021/11/08 12:47:14;;;;;;;0.40;0.40;;;11.70;93.20;;;;;;5103394;28;20212;-69
2021/11/08 12:49:53;;;;;;;0.10;0.10;;;11.70;93.20;;;;;;5102658;28;20502;-69
2021/11/08 12:52:27;;;;;;;0.10;0.10;;;11.70;93.30;;;;;;5098283;28;20238;-69
2021/11/08 12:55:00;;;;;;;0.30;0.30;;;11.70;93.30;;;;;;5107414;28;20205;-69
2021/11/08 12:57:30;;;;;;;0.10;0.10;;;11.70;93.40;;;;;;5109155;28;20213;-70
2021/11/08 13:00:19;;;;;;;0.10;0.10;;;11.70;93.50;;;;;;5086456;28;20885;-69
2021/11/08 13:02:55;;;;;;;0.10;0.10;;;11.80;93.50;;;;;;5099637;28;20254;-69
2021/11/08 13:05:37;;;;;;;0.10;0.10;;;11.80;93.60;;;;;;5097247;28;20212;-69
2021/11/08 13:08:17;;;;;;;0.10;0.10;;;11.80;93.50;;;;;;5085416;28;20654;-69
2021/11/08 13:11:13;;;;;;;0.10;0.10;;;11.80;93.50;;;;;;5096736;28;20285;-69
2021/11/08 13:13:53;;;;;;;0.30;0.30;;;11.80;93.60;;;;;;5094454;28;20236;-70
2021/11/08 13:16:43;;;;;;;0.27;0.20;;;11.80;93.60;;;;;;5097154;28;20639;-69
2021/11/08 13:19:13;;;;;;;0.10;0.10;;;11.80;93.60;;;;;;5090318;28;20209;-69
2021/11/08 13:21:42;;;;;;;0.30;0.30;;;11.80;93.60;;;;;;5085125;28;20284;-69
2021/11/08 13:24:11;;;;;;;0.20;0.20;;;11.80;93.70;;;;;;5104027;28;20243;-69
2021/11/08 13:26:44;;;;;;;0.10;0.10;;;11.80;93.80;;;;;;5102126;28;20205;-69
2021/11/08 13:29:17;;;;;;;0.40;0.40;;;11.80;93.90;;;;;;5093775;28;20242;-69
2021/11/08 13:31:45;;;;;;;0.13;0.13;;;11.70;93.90;;;;;;5098647;28;20627;-69
2021/11/08 13:34:14;;;;;;;0.40;0.40;;;11.70;94.00;;;;;;5105145;28;20226;-69
2021/11/08 13:36:44;;;;;;;0.50;0.50;;;11.70;94.10;;;;;;5102262;28;20647;-70
2021/11/08 13:39:11;;;;;;;0.20;0.20;;;11.80;94.10;;;;;;5091899;28;20258;-70
2021/11/08 13:41:39;;;;;;;0.37;0.37;;;11.80;94.20;;;;;;5097059;28;20245;-71
2021/11/08 13:44:10;;;;;;;0.10;0.10;;;11.80;94.20;;;;;;5101248;28;20251;-71
2021/11/08 13:46:40;;;;;;;0.10;0.10;;;11.80;94.20;;;;;;5105332;28;20236;-70
2021/11/08 13:49:14;;;;;;;0.10;0.10;;;11.80;94.20;;;;;;5095636;28;20628;-70
2021/11/08 13:51:42;;;;;;;0.10;0.10;;;11.80;94.20;;;;;;5089371;28;20224;-70
2021/11/08 13:54:12;;;;;;;0.10;0.10;;;11.80;94.20;;;;;;5082808;28;20212;-70
2021/11/08 13:56:47;;;;;;;1.07;0.10;;;11.80;94.20;;;;;;5107725;28;20616;-70
2021/11/08 13:59:31;;;;;;;0.10;0.10;;;11.80;94.20;;;;;;5105998;28;20236;-69
2021/11/08 14:02:07;;;;;;;0.20;0.20;;;11.80;94.20;;;;;;5101437;28;20245;-70
2021/11/08 14:04:37;;;;;;;0.20;0.20;;;11.80;94.20;;;;;;5097651;28;20548;-70
2021/11/08 14:07:06;;;;;;;0.13;0.13;;;11.80;94.20;;;;;;5095579;28;20227;-69
2021/11/08 14:09:35;;;;;;;0.93;0.60;;;11.80;94.20;;;;;;5091947;28;20236;-69
2021/11/08 14:12:06;;;;;;;0.20;0.20;;;11.80;94.10;;;;;;5101267;28;20233;-69
2021/11/08 14:14:39;;;;;;;0.10;0.10;;;11.70;94.20;;;;;;5084442;28;20213;-69
2021/11/08 14:17:13;;;;;;;0.10;0.10;;;11.70;94.20;;;;;;5097628;28;20231;-71
2021/11/08 14:19:42;;;;;;;0.10;0.10;;;11.70;94.20;;;;;;5099022;28;20342;-69
2021/11/08 14:22:10;;;;;;;0.20;0.20;;;11.70;94.20;;;;;;5085481;28;20220;-70
2021/11/08 14:24:44;;;;;;;0.37;0.37;;;11.70;94.30;;;;;;5109356;28;20228;-70
2021/11/08 14:27:20;;;;;;;0.17;0.17;;;11.70;94.40;;;;;;5106373;28;20547;-70
2021/11/08 14:29:49;;;;;;;1.20;0.40;;;11.70;94.30;;;;;;5090322;28;20231;-69
2021/11/08 14:32:28;;;;;;;0.83;0.83;;;11.70;94.30;;;;;;5103963;28;20232;-70
2021/11/08 14:35:06;;;;;;;0.47;0.47;;;11.70;94.40;;;;;;5103667;28;20209;-70
2021/11/08 14:37:48;;;;;;;0.23;0.23;;;11.70;94.40;;;;;;5102127;28;20222;-70
2021/11/08 14:40:22;;;;;;;0.10;0.10;;;11.70;94.40;;;;;;5099065;28;20217;-70
2021/11/08 14:42:50;;;;;;;0.13;0.13;;;11.70;94.40;;;;;;5080109;28;20212;-70
2021/11/08 14:45:27;;;;;;;0.33;0.33;;;11.70;94.40;;;;;;5062900;28;20221;-70
2021/11/08 14:48:00;;;;;;;0.10;0.10;;;11.70;94.40;;;;;;5071715;28;20650;-70
2021/11/08 14:50:30;;;;;;;0.10;0.10;;;11.70;94.50;;;;;;5088704;28;20213;-70
2021/11/08 14:52:59;;;;;;;0.10;0.10;;;11.70;94.40;;;;;;5089794;28;20233;-70